createdAt,value
2023-01-11T00:01:51.914Z,8.50
2023-01-11T00:04:21.839Z,8.44
2023-01-11T00:06:48.436Z,8.46
2023-01-11T00:09:14.960Z,8.48
2023-01-11T00:11:41.476Z,8.59
2023-01-11T00:14:12.853Z,8.75
2023-01-11T00:16:41.987Z,8.88
2023-01-11T00:19:08.668Z,8.72
2023-01-11T00:21:38.919Z,8.80
2023-01-11T00:24:10.036Z,8.65
2023-01-11T00:26:36.693Z,8.73
2023-01-11T00:29:03.427Z,8.71
2023-01-11T00:31:32.817Z,8.73
2023-01-11T00:34:01.793Z,8.56
2023-01-11T00:36:31.028Z,8.56
2023-01-11T00:39:04.240Z,8.45
2023-01-11T00:41:36.767Z,8.27
2023-01-11T00:44:04.305Z,8.28
2023-01-11T00:46:38.790Z,8.22
2023-01-11T00:49:05.570Z,8.39
2023-01-11T00:51:37.382Z,8.31
2023-01-11T00:54:03.978Z,8.19
2023-01-11T00:56:30.495Z,8.08
2023-01-11T00:58:57.042Z,8.29
2023-01-11T01:01:23.601Z,8.02
2023-01-11T01:03:50.132Z,7.98
2023-01-11T01:06:16.742Z,7.84
2023-01-11T01:08:43.286Z,7.71
2023-01-11T01:11:12.708Z,7.67
2023-01-11T01:13:39.255Z,7.77
2023-01-11T01:16:06.078Z,7.57
2023-01-11T01:18:32.648Z,7.67
2023-01-11T01:21:05.131Z,7.69
2023-01-11T01:23:32.110Z,7.71
2023-01-11T01:26:14.057Z,7.80
2023-01-11T01:28:45.911Z,7.58
2023-01-11T01:31:12.529Z,7.82
2023-01-11T01:33:39.359Z,7.74
2023-01-11T01:36:07.136Z,7.42
2023-01-11T01:38:33.665Z,7.31
2023-01-11T01:41:00.217Z,7.38
2023-01-11T01:43:47.695Z,7.20
2023-01-11T01:46:14.773Z,7.27
2023-01-11T01:48:56.945Z,7.31
2023-01-11T01:51:32.373Z,7.35
2023-01-11T01:54:04.887Z,7.41
2023-01-11T01:56:47.059Z,7.57
2023-01-11T01:59:19.756Z,7.46
2023-01-11T02:01:56.526Z,7.38
2023-01-11T02:04:31.546Z,7.32
2023-01-11T02:07:15.324Z,7.56
2023-01-11T02:09:48.474Z,7.52
2023-01-11T02:12:16.237Z,7.46
2023-01-11T02:14:47.726Z,7.29
2023-01-11T02:17:17.288Z,7.20
2023-01-11T02:19:49.510Z,7.22
2023-01-11T02:22:30.906Z,7.19
2023-01-11T02:25:04.320Z,7.13
2023-01-11T02:27:54.900Z,7.17
2023-01-11T02:30:46.439Z,7.30
2023-01-11T02:33:33.113Z,7.50
2023-01-11T02:36:25.061Z,7.32
2023-01-11T02:38:57.585Z,7.39
2023-01-11T02:41:30.348Z,7.49
2023-01-11T02:44:10.842Z,7.51
2023-01-11T02:46:48.870Z,7.40
2023-01-11T02:49:46.866Z,7.21
2023-01-11T02:52:29.359Z,7.06
2023-01-11T02:54:59.093Z,6.91
2023-01-11T02:57:30.324Z,6.95
2023-01-11T02:59:58.278Z,6.99
2023-01-11T03:02:25.579Z,6.87
2023-01-11T03:05:00.999Z,7.05
2023-01-11T03:07:41.769Z,7.12
2023-01-11T03:10:17.576Z,7.23
2023-01-11T03:15:57.623Z,7.21
2023-01-11T03:18:41.676Z,7.12
2023-01-11T03:21:28.551Z,7.27
2023-01-11T03:24:25.598Z,7.28
2023-01-11T03:27:07.306Z,7.59
2023-01-11T03:29:52.888Z,7.51
2023-01-11T03:32:30.744Z,7.18
2023-01-11T03:35:38.882Z,7.21
2023-01-11T03:38:45.629Z,7.21
2023-01-11T03:41:20.468Z,7.26
2023-01-11T03:43:50.069Z,7.25
2023-01-11T03:46:25.173Z,7.12
2023-01-11T03:49:56.029Z,7.00
2023-01-11T03:52:29.389Z,6.97
2023-01-11T03:54:58.408Z,7.04
2023-01-11T03:57:31.297Z,6.89
2023-01-11T03:59:57.979Z,7.03
2023-01-11T04:02:34.632Z,6.99
2023-01-11T04:05:04.819Z,7.01
2023-01-11T04:07:35.095Z,6.99
2023-01-11T04:10:04.234Z,6.99
2023-01-11T04:12:30.866Z,6.78
2023-01-11T04:15:00.463Z,7.00
2023-01-11T04:17:27.502Z,6.92
2023-01-11T04:19:54.029Z,6.97
2023-01-11T04:22:21.210Z,6.94
2023-01-11T04:24:48.347Z,6.82
2023-01-11T04:27:14.910Z,6.88
2023-01-11T04:29:41.426Z,6.86
2023-01-11T04:32:07.966Z,7.03
2023-01-11T04:34:37.355Z,6.83
2023-01-11T04:37:03.905Z,6.81
2023-01-11T04:39:33.160Z,6.90
2023-01-11T04:41:59.683Z,6.82
2023-01-11T04:44:26.229Z,6.91
2023-01-11T04:46:52.786Z,6.84
2023-01-11T04:49:22.579Z,6.79
2023-01-11T04:51:51.109Z,7.00
2023-01-11T04:54:17.686Z,6.98
2023-01-11T04:56:44.227Z,6.86
2023-01-11T04:59:10.783Z,6.82
2023-01-11T05:01:40.167Z,7.16
2023-01-11T05:04:06.735Z,7.04
2023-01-11T05:06:33.412Z,7.32
2023-01-11T05:09:00.019Z,7.09
2023-01-11T05:11:26.708Z,7.01
2023-01-11T05:13:54.050Z,6.95
2023-01-11T05:16:22.729Z,6.94
2023-01-11T05:18:55.335Z,6.87
2023-01-11T05:21:34.077Z,6.88
2023-01-11T05:24:03.338Z,6.85
2023-01-11T05:26:34.902Z,7.01
2023-01-11T05:29:08.912Z,6.88
2023-01-11T05:31:40.067Z,6.98
2023-01-11T05:34:12.537Z,7.00
2023-01-11T05:36:42.805Z,7.07
2023-01-11T05:39:13.869Z,7.21
2023-01-11T05:41:41.010Z,6.95
2023-01-11T05:44:11.657Z,7.02
2023-01-11T05:46:39.763Z,6.91
2023-01-11T05:49:07.181Z,6.86
2023-01-11T05:51:34.458Z,6.85
2023-01-11T05:54:09.535Z,6.92
2023-01-11T05:56:36.162Z,7.20
2023-01-11T05:59:02.802Z,6.96
2023-01-11T06:01:37.197Z,6.82
2023-01-11T06:04:03.777Z,6.74
2023-01-11T06:06:42.426Z,6.63
2023-01-11T06:09:09.209Z,6.57
2023-01-11T06:11:35.910Z,6.54
2023-01-11T06:14:02.754Z,6.54
2023-01-11T06:16:31.371Z,6.51
2023-01-11T06:18:57.973Z,6.51
2023-01-11T06:21:24.620Z,6.47
2023-01-11T06:23:52.281Z,6.52
2023-01-11T06:26:23.229Z,6.45
2023-01-11T06:28:50.987Z,6.52
2023-01-11T06:31:23.711Z,6.29
2023-01-11T06:33:52.888Z,6.41
2023-01-11T06:36:19.541Z,6.42
2023-01-11T06:38:46.201Z,6.45
2023-01-11T06:41:13.198Z,6.48
2023-01-11T06:43:40.300Z,6.61
2023-01-11T06:46:11.519Z,6.67
2023-01-11T06:48:38.369Z,6.60
2023-01-11T06:51:08.017Z,6.60
2023-01-11T06:53:34.870Z,6.55
2023-01-11T06:56:01.481Z,6.50
2023-01-11T06:58:30.929Z,6.57
2023-01-11T07:01:00.520Z,6.47
2023-01-11T07:03:31.043Z,6.49
2023-01-11T07:05:58.515Z,6.66
2023-01-11T07:08:26.180Z,6.68
2023-01-11T07:10:53.424Z,6.53
2023-01-11T07:13:20.045Z,6.65
2023-01-11T07:15:48.749Z,6.64
2023-01-11T07:18:15.446Z,6.64
2023-01-11T07:20:46.305Z,6.50
2023-01-11T07:23:12.933Z,6.42
2023-01-11T07:25:42.461Z,6.46
2023-01-11T07:28:09.690Z,6.38
2023-01-11T07:30:57.492Z,6.37
2023-01-11T07:33:25.790Z,6.37
2023-01-11T07:35:52.427Z,6.47
2023-01-11T07:38:19.075Z,6.55
2023-01-11T07:40:48.209Z,6.51
2023-01-11T07:43:16.211Z,6.49
2023-01-11T07:45:46.679Z,6.48
2023-01-11T07:48:16.993Z,6.53
2023-01-11T07:50:47.335Z,6.54
2023-01-11T07:53:14.115Z,6.53
2023-01-11T07:55:43.600Z,6.54
2023-01-11T07:58:16.770Z,6.61
2023-01-11T08:00:45.565Z,6.74
2023-01-11T08:03:14.965Z,6.80
2023-01-11T08:05:41.712Z,6.88
2023-01-11T08:08:08.664Z,6.91
2023-01-11T08:10:35.231Z,6.78
2023-01-11T08:13:01.985Z,6.36
2023-01-11T08:15:51.291Z,6.02
2023-01-11T08:18:20.433Z,6.01
2023-01-11T08:20:50.282Z,6.34
2023-01-11T08:23:16.814Z,6.48
2023-01-11T08:25:43.372Z,6.38
2023-01-11T08:28:11.337Z,6.21
2023-01-11T08:30:38.564Z,6.14
2023-01-11T08:33:06.854Z,6.05
2023-01-11T08:35:41.158Z,5.91
2023-01-11T08:38:07.752Z,5.93
2023-01-11T08:40:34.466Z,5.68
2023-01-11T08:43:01.089Z,5.75
2023-01-11T08:45:36.649Z,5.97
2023-01-11T08:48:03.291Z,6.00
2023-01-11T08:50:29.920Z,6.05
2023-01-11T08:53:03.234Z,6.20
2023-01-11T08:55:29.810Z,6.26
2023-01-11T08:57:59.411Z,6.25
2023-01-11T09:00:32.361Z,6.36
2023-01-11T09:03:01.272Z,6.39
2023-01-11T09:05:33.519Z,6.42
2023-01-11T09:08:00.472Z,6.54
2023-01-11T09:10:35.977Z,6.57
2023-01-11T09:13:02.559Z,6.62
2023-01-11T09:15:41.415Z,6.71
2023-01-11T09:18:08.746Z,6.82
2023-01-11T09:20:35.394Z,6.89
2023-01-11T09:23:09.660Z,6.98
2023-01-11T09:25:41.901Z,7.07
2023-01-11T09:28:10.650Z,7.17
2023-01-11T09:30:37.250Z,7.22
2023-01-11T09:33:03.871Z,7.30
2023-01-11T09:35:36.555Z,7.43
2023-01-11T09:38:03.169Z,7.51
2023-01-11T09:40:38.975Z,7.67
2023-01-11T09:43:05.612Z,8.00
2023-01-11T09:45:32.406Z,7.98
2023-01-11T09:48:20.522Z,8.41
2023-01-11T09:51:14.963Z,8.78
2023-01-11T09:53:55.254Z,8.84
2023-01-11T09:56:37.350Z,8.80
2023-01-11T09:59:18.805Z,8.66
2023-01-11T10:02:22.054Z,8.82
2023-01-11T10:05:19.719Z,9.25
2023-01-11T10:18:23.219Z,9.18
2023-01-11T10:21:07.544Z,9.47
2023-01-11T10:24:26.817Z,9.31
2023-01-11T10:27:06.883Z,9.99
2023-01-11T10:30:22.656Z,9.72
2023-01-11T10:36:42.831Z,9.33
2023-01-11T10:39:31.373Z,9.68
2023-01-11T10:42:12.420Z,9.76
2023-01-11T10:45:11.731Z,9.87
2023-01-11T10:48:09.233Z,9.43
2023-01-11T10:50:49.019Z,9.58
2023-01-11T11:00:01.908Z,9.78
2023-01-11T11:02:42.974Z,9.61
2023-01-11T11:05:43.329Z,9.50
2023-01-11T11:08:13.799Z,9.66
2023-01-11T11:11:12.223Z,9.96
2023-01-11T11:13:43.298Z,10.13
2023-01-11T11:16:33.316Z,10.37
2023-01-11T11:18:59.921Z,9.98
2023-01-11T11:21:33.945Z,10.15
2023-01-11T11:24:03.864Z,10.17
2023-01-11T11:26:41.098Z,10.19
2023-01-11T11:29:09.877Z,10.28
2023-01-11T11:31:44.148Z,10.58
2023-01-11T11:34:17.389Z,10.66
2023-01-11T11:36:45.935Z,10.55
2023-01-11T11:39:25.972Z,10.66
2023-01-11T11:41:54.917Z,10.82
2023-01-11T11:44:24.380Z,10.70
2023-01-11T11:47:14.798Z,10.91
2023-01-11T11:49:41.679Z,10.96
2023-01-11T11:52:14.095Z,11.07
2023-01-11T11:54:48.311Z,11.01
2023-01-11T11:57:21.851Z,10.93
2023-01-11T11:59:54.531Z,10.97
2023-01-11T12:02:28.100Z,11.02
2023-01-11T12:04:58.214Z,11.00
2023-01-11T12:07:36.120Z,11.04
2023-01-11T12:10:16.646Z,11.00
2023-01-11T12:12:54.320Z,10.94
2023-01-11T12:15:24.702Z,10.94
2023-01-11T12:17:51.611Z,10.90
2023-01-11T12:20:24.030Z,10.94
2023-01-11T12:23:12.531Z,10.89
2023-01-11T12:25:57.642Z,11.20
2023-01-11T12:28:50.196Z,10.77
2023-01-11T12:31:48.735Z,10.95
2023-01-11T12:34:24.337Z,10.95
2023-01-11T12:37:17.800Z,10.99
2023-01-11T12:39:58.677Z,11.22
2023-01-11T12:42:28.020Z,11.24
2023-01-11T12:45:33.543Z,11.07
2023-01-11T12:48:06.530Z,10.93
2023-01-11T12:53:36.136Z,11.05
2023-01-11T12:56:15.265Z,11.08
2023-01-11T12:59:26.549Z,11.05
2023-01-11T13:02:09.289Z,11.21
2023-01-11T13:05:13.153Z,11.52
2023-01-11T13:08:06.576Z,11.30
2023-01-11T13:11:11.333Z,11.26
2023-01-11T13:13:51.094Z,11.28
2023-01-11T13:16:48.270Z,11.09
2023-01-11T13:19:42.043Z,11.11
2023-01-11T13:22:19.395Z,11.15
2023-01-11T13:24:49.632Z,10.99
2023-01-11T13:27:27.190Z,10.96
2023-01-11T13:29:56.335Z,10.81
2023-01-11T13:32:27.721Z,10.83
2023-01-11T13:35:17.014Z,11.04
2023-01-11T13:37:51.007Z,11.05
2023-01-11T13:40:26.211Z,11.20
2023-01-11T13:43:19.117Z,10.99
2023-01-11T13:45:55.542Z,10.95
2023-01-11T13:48:28.416Z,11.27
2023-01-11T13:51:13.748Z,11.08
2023-01-11T13:54:25.243Z,10.99
2023-01-11T13:57:19.889Z,11.03
2023-01-11T13:59:52.972Z,11.08
2023-01-11T14:02:48.362Z,11.12
2023-01-11T14:05:18.591Z,11.00
2023-01-11T14:08:13.945Z,10.99
2023-01-11T14:10:59.596Z,11.20
2023-01-11T14:13:47.880Z,11.30
2023-01-11T14:16:35.905Z,11.08
2023-01-11T14:19:50.086Z,11.21
2023-01-11T14:22:34.709Z,11.29
2023-01-11T14:25:13.879Z,11.18
2023-01-11T14:27:46.144Z,11.19
2023-01-11T14:30:40.899Z,11.09
2023-01-11T14:33:55.056Z,10.89
2023-01-11T14:36:24.247Z,10.91
2023-01-11T14:39:22.853Z,10.86
2023-01-11T14:42:09.420Z,10.95
2023-01-11T14:44:58.969Z,10.97
2023-01-11T14:48:01.000Z,11.09
2023-01-11T14:50:38.970Z,10.97
2023-01-11T14:53:07.777Z,10.71
2023-01-11T14:55:41.202Z,10.99
2023-01-11T14:58:29.047Z,10.82
2023-01-11T15:00:55.573Z,10.62
2023-01-11T15:03:22.110Z,10.64
2023-01-11T15:05:58.079Z,10.50
2023-01-11T15:08:27.396Z,10.55
2023-01-11T15:11:20.510Z,10.42
2023-01-11T15:13:52.703Z,10.39
2023-01-11T15:16:23.379Z,10.30
2023-01-11T15:18:50.184Z,10.23
2023-01-11T15:21:21.721Z,10.13
2023-01-11T15:23:55.569Z,10.04
2023-01-11T15:26:24.309Z,9.96
2023-01-11T15:28:56.365Z,9.92
2023-01-11T15:31:34.472Z,9.82
2023-01-11T15:34:37.863Z,9.80
2023-01-11T15:37:04.360Z,9.72
2023-01-11T15:39:36.877Z,9.64
2023-01-11T15:42:15.152Z,9.65
2023-01-11T15:45:19.112Z,9.53
2023-01-11T15:48:23.631Z,9.51
2023-01-11T15:51:29.994Z,9.42
2023-01-11T15:54:17.784Z,9.30
2023-01-11T15:56:53.668Z,9.19
2023-01-11T15:59:40.129Z,9.17
2023-01-11T16:02:15.469Z,9.07
2023-01-11T16:04:57.180Z,9.01
2023-01-11T16:08:11.076Z,9.48
2023-01-11T16:11:07.199Z,9.39
2023-01-11T16:13:45.344Z,9.11
2023-01-11T16:16:24.475Z,9.07
2023-01-11T16:18:57.587Z,9.04
2023-01-11T16:21:39.827Z,9.07
2023-01-11T16:24:08.051Z,8.92
2023-01-11T16:26:36.872Z,8.77
2023-01-11T16:29:11.108Z,8.71
2023-01-11T16:31:55.715Z,8.80
2023-01-11T16:34:22.748Z,8.67
2023-01-11T16:36:52.155Z,8.61
2023-01-11T16:39:23.078Z,8.45
2023-01-11T16:42:05.038Z,8.43
2023-01-11T16:44:37.623Z,8.48
2023-01-11T16:47:04.209Z,8.61
2023-01-11T16:49:30.847Z,8.61
2023-01-11T16:51:58.228Z,8.42
2023-01-11T16:54:28.890Z,8.43
2023-01-11T16:56:56.089Z,8.53
2023-01-11T16:59:26.305Z,8.89
2023-01-11T17:01:55.836Z,9.13
2023-01-11T17:04:29.311Z,9.34
2023-01-11T17:06:57.855Z,9.37
2023-01-11T17:09:24.456Z,9.36
2023-01-11T17:11:52.223Z,9.32
2023-01-11T17:15:00.311Z,9.10
2023-01-11T17:17:27.572Z,8.71
2023-01-11T17:19:56.664Z,8.66
2023-01-11T17:22:28.259Z,8.57
2023-01-11T17:25:04.642Z,8.45
2023-01-11T17:27:40.099Z,8.34
2023-01-11T17:30:21.702Z,8.39
2023-01-11T17:32:50.996Z,8.50
2023-01-11T17:35:22.139Z,8.48
2023-01-11T17:37:51.345Z,8.40
2023-01-11T17:40:22.947Z,8.32
2023-01-11T17:42:50.680Z,8.22
2023-01-11T17:45:23.782Z,8.05
2023-01-11T17:47:59.622Z,7.86
2023-01-11T17:50:40.604Z,7.88
2023-01-11T17:53:22.371Z,8.17
2023-01-11T17:56:02.365Z,8.20
2023-01-11T17:58:35.381Z,8.33
2023-01-11T18:01:05.144Z,8.59
2023-01-11T18:03:51.371Z,8.97
2023-01-11T18:06:37.599Z,8.69
2023-01-11T18:09:07.407Z,8.45
2023-01-11T18:11:35.823Z,8.46
2023-01-11T18:14:06.037Z,8.52
2023-01-11T18:16:39.855Z,8.53
2023-01-11T18:19:24.043Z,8.51
2023-01-11T18:21:52.372Z,8.62
2023-01-11T18:24:28.516Z,8.51
2023-01-11T18:27:14.346Z,8.68
2023-01-11T18:29:40.848Z,8.94
2023-01-11T18:32:11.045Z,8.67
2023-01-11T18:34:37.830Z,8.36
2023-01-11T18:37:05.200Z,8.23
2023-01-11T18:39:32.415Z,8.25
2023-01-11T18:42:00.174Z,8.13
2023-01-11T18:44:26.766Z,8.04
2023-01-11T18:46:53.315Z,8.09
2023-01-11T18:49:19.942Z,8.00
2023-01-11T18:51:49.660Z,7.98
2023-01-11T18:54:18.010Z,7.99
2023-01-11T18:56:44.614Z,8.02
2023-01-11T18:59:11.251Z,7.98
2023-01-11T19:01:54.367Z,7.91
2023-01-11T19:04:31.143Z,7.94
2023-01-11T19:07:01.258Z,7.91
2023-01-11T19:09:28.978Z,7.94
2023-01-11T19:11:58.639Z,7.97
2023-01-11T19:14:25.252Z,8.03
2023-01-11T19:16:51.808Z,8.06
2023-01-11T19:19:18.420Z,8.11
2023-01-11T19:21:44.964Z,8.32
2023-01-11T19:24:11.698Z,8.07
2023-01-11T19:26:38.429Z,8.04
2023-01-11T19:29:07.576Z,8.31
2023-01-11T19:31:39.131Z,8.13
2023-01-11T19:34:07.994Z,8.07
2023-01-11T19:36:34.722Z,8.03
2023-01-11T19:39:01.290Z,8.09
2023-01-11T19:41:31.255Z,8.02
2023-01-11T19:43:59.796Z,8.14
2023-01-11T19:46:31.944Z,8.13
2023-01-11T19:48:58.871Z,8.10
2023-01-11T19:51:25.550Z,8.06
2023-01-11T19:53:52.159Z,8.22
2023-01-11T19:56:18.712Z,8.21
2023-01-11T19:58:45.294Z,8.17
2023-01-11T20:01:13.152Z,8.09
2023-01-11T20:03:42.129Z,8.04
2023-01-11T20:06:08.936Z,8.18
2023-01-11T20:08:37.064Z,8.14
2023-01-11T20:11:05.291Z,8.12
2023-01-11T20:13:40.386Z,8.19
2023-01-11T20:16:12.140Z,8.41
2023-01-11T20:18:39.518Z,8.30
2023-01-11T20:21:06.523Z,8.23
2023-01-11T20:23:43.234Z,8.29
2023-01-11T20:26:11.107Z,8.27
2023-01-11T20:28:39.691Z,8.28
2023-01-11T20:31:07.055Z,8.23
2023-01-11T20:33:33.920Z,8.28
2023-01-11T20:36:09.760Z,8.33
2023-01-11T20:38:36.510Z,8.38
2023-01-11T20:41:08.471Z,8.39
2023-01-11T20:43:37.300Z,8.40
2023-01-11T20:46:04.036Z,8.44
2023-01-11T20:48:30.696Z,8.41
2023-01-11T20:51:00.372Z,8.39
2023-01-11T20:53:27.709Z,8.47
2023-01-11T20:55:57.103Z,8.54
2023-01-11T20:58:23.836Z,8.48
2023-01-11T21:00:50.428Z,8.44
2023-01-11T21:03:18.756Z,8.38
2023-01-11T21:05:45.388Z,8.38
2023-01-11T21:08:12.033Z,8.52
2023-01-11T21:10:39.044Z,8.52
2023-01-11T21:13:05.589Z,8.69
2023-01-11T21:15:32.163Z,8.53
2023-01-11T21:17:58.751Z,8.42
2023-01-11T21:20:25.303Z,8.45
2023-01-11T21:22:51.889Z,8.46
2023-01-11T21:25:18.478Z,8.56
2023-01-11T21:27:48.813Z,8.63
2023-01-11T21:30:15.717Z,8.58
2023-01-11T21:32:42.268Z,8.61
2023-01-11T21:35:09.218Z,8.44
2023-01-11T21:37:38.687Z,8.39
2023-01-11T21:40:05.883Z,8.48
2023-01-11T21:42:32.618Z,8.73
2023-01-11T21:44:59.186Z,8.73
2023-01-11T21:47:25.762Z,8.69
2023-01-11T21:49:52.322Z,8.40
2023-01-11T21:52:18.943Z,8.55
2023-01-11T21:54:47.143Z,8.47
2023-01-11T21:57:17.980Z,8.42
2023-01-11T21:59:45.714Z,8.37
2023-01-11T22:02:12.332Z,8.27
2023-01-11T22:04:41.726Z,8.31
2023-01-11T22:07:08.318Z,8.50
2023-01-11T22:09:35.055Z,8.64
2023-01-11T22:12:01.673Z,8.54
2023-01-11T22:14:28.214Z,8.35
2023-01-11T22:16:54.818Z,8.33
2023-01-11T22:19:21.590Z,8.37
2023-01-11T22:21:48.604Z,8.62
2023-01-11T22:24:16.144Z,8.36
2023-01-11T22:26:42.789Z,8.28
2023-01-11T22:29:09.958Z,8.27
2023-01-11T22:31:38.065Z,8.20
2023-01-11T22:34:05.214Z,8.28
2023-01-11T22:36:33.525Z,8.25
2023-01-11T22:39:00.158Z,8.26
2023-01-11T22:41:26.784Z,8.28
2023-01-11T22:43:56.138Z,8.38
2023-01-11T22:46:24.978Z,8.39
2023-01-11T22:48:52.781Z,8.42
2023-01-11T22:51:22.880Z,8.41
2023-01-11T22:53:54.239Z,8.42
2023-01-11T22:56:23.853Z,8.41
2023-01-11T22:58:55.701Z,8.41
2023-01-11T23:01:42.249Z,8.52
2023-01-11T23:04:12.375Z,8.43
2023-01-11T23:06:40.894Z,8.39
2023-01-11T23:09:16.285Z,8.39
2023-01-11T23:11:43.564Z,8.66
2023-01-11T23:14:14.038Z,8.84
2023-01-11T23:16:41.191Z,8.93
2023-01-11T23:19:09.068Z,9.13
2023-01-11T23:21:40.718Z,9.02
2023-01-11T23:24:09.327Z,8.76
2023-01-11T23:26:36.834Z,8.57
2023-01-11T23:29:07.276Z,8.41
2023-01-11T23:31:34.457Z,8.69
2023-01-11T23:34:05.513Z,8.90
2023-01-11T23:36:34.818Z,8.61
2023-01-11T23:39:02.126Z,8.98
2023-01-11T23:41:28.841Z,8.60
2023-01-11T23:43:55.598Z,8.51
2023-01-11T23:46:22.962Z,8.48
2023-01-11T23:48:49.833Z,8.43
2023-01-11T23:51:16.898Z,8.40
2023-01-11T23:53:43.517Z,8.42
2023-01-11T23:56:10.144Z,8.42
2023-01-11T23:58:36.739Z,8.38
